createdAt,value
2022-11-21T00:03:39.761Z,4.43
2022-11-21T00:08:32.380Z,3.50
2022-11-21T00:13:24.939Z,2.60
2022-11-21T00:18:18.890Z,2.40
2022-11-21T00:23:11.791Z,2.87
2022-11-21T00:28:04.532Z,2.47
2022-11-21T00:32:58.909Z,3.60
2022-11-21T00:37:52.863Z,2.60
2022-11-21T00:42:45.522Z,2.90
2022-11-21T00:47:38.099Z,3.10
2022-11-21T00:52:30.676Z,7.13
2022-11-21T00:57:24.632Z,3.77
2022-11-21T01:02:17.252Z,11.20
2022-11-21T01:07:10.990Z,4.07
2022-11-21T01:12:03.648Z,3.87
2022-11-21T01:16:57.602Z,3.90
2022-11-21T01:21:50.190Z,6.70
2022-11-21T01:26:42.789Z,6.90
2022-11-21T01:31:35.621Z,5.40
2022-11-21T01:36:30.491Z,4.60
2022-11-21T01:41:24.144Z,8.27
2022-11-21T01:46:17.877Z,10.63
2022-11-21T01:51:13.462Z,7.30
2022-11-21T01:56:08.114Z,14.10
2022-11-21T02:01:00.815Z,7.93
2022-11-21T02:05:54.377Z,8.67
2022-11-21T02:10:48.866Z,4.80
2022-11-21T02:15:42.787Z,3.83
2022-11-21T02:20:35.659Z,4.07
2022-11-21T02:25:30.605Z,4.13
2022-11-21T02:30:23.341Z,4.30
2022-11-21T02:35:17.010Z,5.73
2022-11-21T02:40:11.132Z,3.60
2022-11-21T02:45:09.383Z,6.27
2022-11-21T02:50:03.908Z,4.90
2022-11-21T02:54:56.483Z,6.63
2022-11-21T02:59:49.067Z,7.20
2022-11-21T03:04:43.022Z,5.17
2022-11-21T03:09:35.774Z,3.93
2022-11-21T03:14:28.563Z,5.33
2022-11-21T03:19:21.258Z,5.37
2022-11-21T03:24:15.306Z,7.60
2022-11-21T03:29:08.410Z,6.00
2022-11-21T03:34:01.000Z,6.40
2022-11-21T03:38:53.665Z,9.17
2022-11-21T03:43:47.605Z,5.13
2022-11-21T03:48:40.153Z,10.00
2022-11-21T03:53:32.724Z,7.80
2022-11-21T03:58:25.283Z,5.97
2022-11-21T04:03:19.296Z,7.30
2022-11-21T04:08:11.997Z,6.83
2022-11-21T04:13:04.567Z,8.23
2022-11-21T04:17:57.193Z,3.67
2022-11-21T04:22:51.127Z,5.50
2022-11-21T04:27:43.714Z,6.80
2022-11-21T04:32:36.296Z,9.07
2022-11-21T04:37:28.850Z,4.93
2022-11-21T04:42:22.790Z,7.33
2022-11-21T04:47:15.349Z,4.83
2022-11-21T04:52:07.938Z,7.20
2022-11-21T04:57:00.490Z,5.07
2022-11-21T05:01:54.402Z,6.50
2022-11-21T05:06:46.982Z,6.10
2022-11-21T05:11:57.120Z,5.63
2022-11-21T05:16:49.748Z,5.27
2022-11-21T05:21:43.697Z,8.20
2022-11-21T05:26:36.377Z,5.20
2022-11-21T05:31:28.931Z,9.83
2022-11-21T05:36:21.501Z,7.33
2022-11-21T05:41:15.503Z,6.47
2022-11-21T05:46:08.181Z,3.33
2022-11-21T05:51:00.834Z,3.17
2022-11-21T05:55:53.373Z,5.47
2022-11-21T06:00:47.368Z,5.57
2022-11-21T06:05:40.042Z,6.70
2022-11-21T06:10:32.691Z,10.50
2022-11-21T06:15:25.293Z,5.50
2022-11-21T06:20:19.356Z,4.20
2022-11-21T06:25:12.104Z,4.40
2022-11-21T06:30:04.898Z,4.83
2022-11-21T06:34:57.499Z,10.40
2022-11-21T06:39:51.503Z,4.60
2022-11-21T06:44:44.066Z,4.53
2022-11-21T06:49:36.663Z,3.90
2022-11-21T06:54:29.551Z,9.70
2022-11-21T06:59:23.989Z,9.50
2022-11-21T07:04:16.511Z,5.53
2022-11-21T07:14:21.766Z,7.93
2022-11-21T07:19:15.715Z,5.90
2022-11-21T07:24:08.325Z,4.97
2022-11-21T07:29:01.052Z,5.80
2022-11-21T07:33:53.747Z,5.03
2022-11-21T07:38:48.383Z,5.27
2022-11-21T07:43:40.950Z,3.07
2022-11-21T07:48:33.483Z,5.90
2022-11-21T07:53:26.039Z,3.43
2022-11-21T07:58:19.962Z,4.40
2022-11-21T08:03:13.339Z,4.90
2022-11-21T08:08:06.561Z,4.50
2022-11-21T08:12:59.141Z,4.90
2022-11-21T08:17:53.082Z,4.60
2022-11-21T08:22:45.653Z,6.63
2022-11-21T08:27:38.540Z,6.27
2022-11-21T08:32:31.120Z,4.03
2022-11-21T08:37:25.066Z,6.13
2022-11-21T08:42:17.655Z,8.33
2022-11-21T08:47:10.239Z,5.33
2022-11-21T08:52:02.790Z,4.97
2022-11-21T08:56:56.743Z,4.47
2022-11-21T09:01:49.398Z,4.23
2022-11-21T09:06:42.051Z,5.43
2022-11-21T09:11:34.990Z,5.80
2022-11-21T09:16:46.460Z,8.40
2022-11-21T09:21:39.037Z,4.53
2022-11-21T09:26:31.567Z,7.00
2022-11-21T09:31:24.167Z,5.43
2022-11-21T09:36:18.095Z,5.30
2022-11-21T09:41:34.387Z,3.23
2022-11-21T09:46:31.576Z,4.10
2022-11-21T09:51:26.958Z,5.33
2022-11-21T09:56:21.435Z,7.40
2022-11-21T10:01:14.450Z,4.97
2022-11-21T10:06:14.040Z,6.93
2022-11-21T10:11:19.442Z,8.10
2022-11-21T10:16:17.893Z,4.73
2022-11-21T10:21:13.931Z,6.33
2022-11-21T10:26:15.210Z,7.40
2022-11-21T10:31:09.949Z,5.00
2022-11-21T10:36:03.954Z,6.70
2022-11-21T10:41:02.050Z,11.40
2022-11-21T10:45:55.953Z,7.23
2022-11-21T10:50:56.096Z,5.47
2022-11-21T10:55:57.225Z,8.40
2022-11-21T11:00:59.293Z,8.27
2022-11-21T11:05:55.292Z,5.90
2022-11-21T11:11:02.054Z,6.63
2022-11-21T11:15:57.421Z,9.50
2022-11-21T11:20:51.415Z,4.50
2022-11-21T11:25:46.475Z,6.70
2022-11-21T11:30:39.100Z,5.53
2022-11-21T11:35:33.451Z,5.90
2022-11-21T11:40:31.224Z,6.03
2022-11-21T11:45:45.146Z,7.17
2022-11-21T11:50:40.747Z,6.47
2022-11-21T11:55:37.007Z,7.03
2022-11-21T12:00:34.861Z,6.97
2022-11-21T12:05:28.632Z,9.97
2022-11-21T12:10:24.765Z,7.33
2022-11-21T12:15:38.656Z,9.63
2022-11-21T12:20:34.345Z,7.60
2022-11-21T12:25:30.064Z,7.40
2022-11-21T12:30:49.384Z,5.93
2022-11-21T12:36:14.488Z,5.37
2022-11-21T12:41:29.424Z,4.13
2022-11-21T12:46:26.607Z,8.13
2022-11-21T12:51:54.441Z,6.40
2022-11-21T12:56:52.958Z,6.73
2022-11-21T13:01:51.033Z,5.63
2022-11-21T13:06:45.295Z,6.80
2022-11-21T13:11:57.937Z,7.20
2022-11-21T13:16:55.979Z,5.30
2022-11-21T13:21:49.972Z,9.40
2022-11-21T13:27:00.218Z,8.00
2022-11-21T13:31:54.158Z,6.00
2022-11-21T13:36:48.081Z,7.93
2022-11-21T13:42:20.229Z,6.80
2022-11-21T13:47:32.245Z,9.23
2022-11-21T13:52:27.749Z,6.87
2022-11-21T13:57:26.410Z,5.83
2022-11-21T14:02:29.525Z,7.43
2022-11-21T14:07:24.141Z,8.53
2022-11-21T14:12:21.230Z,10.73
2022-11-21T14:17:33.924Z,7.30
2022-11-21T14:22:34.584Z,13.83
2022-11-21T14:27:29.479Z,10.70
2022-11-21T14:32:26.938Z,7.53
2022-11-21T14:37:21.845Z,8.30
2022-11-21T14:42:15.766Z,9.43
2022-11-21T14:47:13.993Z,14.53
2022-11-21T14:52:17.549Z,10.60
2022-11-21T14:57:19.689Z,8.80
2022-11-21T15:02:13.645Z,9.80
2022-11-21T15:07:06.364Z,7.70
2022-11-21T15:12:01.230Z,8.53
2022-11-21T15:16:56.550Z,7.33
2022-11-21T15:21:49.806Z,11.83
2022-11-21T15:26:42.837Z,6.20
2022-11-21T15:31:35.388Z,6.33
2022-11-21T15:36:29.804Z,7.67
2022-11-21T15:41:26.577Z,10.30
2022-11-21T15:46:19.993Z,7.17
2022-11-21T15:51:12.733Z,7.23
2022-11-21T15:56:07.161Z,9.50
2022-11-21T16:01:00.372Z,10.23
2022-11-21T16:05:53.130Z,7.10
2022-11-21T16:10:45.737Z,9.50
2022-11-21T16:15:39.689Z,10.17
2022-11-21T16:20:32.277Z,6.23
2022-11-21T16:25:24.885Z,5.57
2022-11-21T16:30:17.539Z,10.10
2022-11-21T16:35:11.820Z,5.17
2022-11-21T16:40:04.883Z,7.40
2022-11-21T16:44:57.716Z,6.70
2022-11-21T16:49:50.353Z,4.50
2022-11-21T16:54:44.535Z,7.03
2022-11-21T16:59:43.065Z,4.90
2022-11-21T17:04:37.215Z,7.80
2022-11-21T17:09:29.915Z,4.40
2022-11-21T17:14:23.935Z,2.87
2022-11-21T17:19:16.840Z,5.10
2022-11-21T17:24:09.501Z,5.23
2022-11-21T17:29:03.550Z,4.10
2022-11-21T17:33:58.282Z,6.33
2022-11-21T17:38:50.955Z,4.80
2022-11-21T17:43:43.571Z,4.10
2022-11-21T17:48:36.571Z,5.23
2022-11-21T17:53:31.255Z,7.27
2022-11-21T17:58:23.812Z,5.90
2022-11-21T18:03:16.440Z,6.50
2022-11-21T18:08:09.118Z,18.13
2022-11-21T18:13:03.068Z,8.23
2022-11-21T18:17:55.639Z,5.13
2022-11-21T18:22:49.056Z,7.73
2022-11-21T18:27:41.998Z,28.50
2022-11-21T18:32:35.960Z,31.67
2022-11-21T18:37:29.032Z,29.70
2022-11-21T18:42:21.628Z,10.57
2022-11-21T18:47:20.415Z,9.73
2022-11-21T18:52:14.962Z,19.33
2022-11-21T18:57:07.505Z,13.57
2022-11-21T19:02:00.181Z,9.13
2022-11-21T19:06:52.835Z,12.53
2022-11-21T19:11:47.031Z,9.30
2022-11-21T19:16:40.074Z,11.40
2022-11-21T19:21:32.654Z,13.57
2022-11-21T19:26:25.393Z,15.73
2022-11-21T19:31:19.843Z,13.53
2022-11-21T19:36:14.223Z,11.60
2022-11-21T19:41:16.997Z,13.90
2022-11-21T19:46:09.609Z,14.13
2022-11-21T19:51:04.048Z,9.60
2022-11-21T19:55:56.634Z,12.27
2022-11-21T20:00:49.195Z,11.20
2022-11-21T20:05:41.759Z,12.57
2022-11-21T20:10:35.850Z,6.47
2022-11-21T20:15:28.438Z,5.00
2022-11-21T20:20:21.060Z,4.50
2022-11-21T20:25:13.726Z,5.20
2022-11-21T20:30:08.546Z,6.30
2022-11-21T20:35:01.143Z,5.57
2022-11-21T20:39:53.794Z,7.93
2022-11-21T20:50:01.641Z,9.50
2022-11-21T20:54:54.514Z,7.53
2022-11-21T20:59:47.143Z,5.53
2022-11-21T21:04:39.726Z,7.50
2022-11-21T21:09:33.640Z,6.43
2022-11-21T21:14:26.239Z,7.07
2022-11-21T21:19:19.100Z,9.70
2022-11-21T21:24:12.244Z,11.20
2022-11-21T21:29:06.494Z,5.70
2022-11-21T21:34:00.370Z,6.80
2022-11-21T21:38:53.866Z,8.73
2022-11-21T21:43:46.552Z,12.43
2022-11-21T21:48:40.837Z,12.63
2022-11-21T21:53:36.087Z,8.47
2022-11-21T21:58:29.011Z,11.30
2022-11-21T22:03:21.816Z,10.80
2022-11-21T22:08:15.752Z,7.50
2022-11-21T22:13:08.388Z,6.47
2022-11-21T22:18:00.945Z,6.83
2022-11-21T22:22:57.646Z,8.37
2022-11-21T22:27:54.223Z,5.90
2022-11-21T22:32:46.789Z,4.10
2022-11-21T22:37:39.475Z,6.03
2022-11-21T22:42:32.020Z,4.57
2022-11-21T22:47:25.960Z,3.27
2022-11-21T22:52:18.594Z,3.30
2022-11-21T22:57:11.251Z,2.20
2022-11-21T23:02:03.909Z,3.00
2022-11-21T23:06:57.982Z,2.63
2022-11-21T23:11:50.533Z,3.23
2022-11-21T23:16:43.082Z,2.47
2022-11-21T23:21:35.673Z,3.97
2022-11-21T23:26:29.603Z,2.70
2022-11-21T23:31:22.159Z,4.17
2022-11-21T23:36:14.753Z,2.40
2022-11-21T23:41:07.352Z,3.00
2022-11-21T23:46:01.288Z,2.30
2022-11-21T23:50:53.845Z,4.43
2022-11-21T23:55:46.407Z,3.50
